sensor_id;sensor_type;location;lat;lon;timestamp;P1;durP1;ratioP1;P2;durP2;ratioP2
69569;SDS011;56781;42.292;23.146;2022-12-07T00:01:21;97.80;;;33.70;;
69569;SDS011;56781;42.292;23.146;2022-12-07T00:03:51;82.30;;;27.75;;
69569;SDS011;56781;42.292;23.146;2022-12-07T00:06:20;89.38;;;32.30;;
69569;SDS011;56781;42.292;23.146;2022-12-07T00:08:47;67.57;;;24.63;;
69569;SDS011;56781;42.292;23.146;2022-12-07T00:11:19;94.30;;;29.47;;
69569;SDS011;56781;42.292;23.146;2022-12-07T00:13:50;73.72;;;25.40;;
69569;SDS011;56781;42.292;23.146;2022-12-07T00:16:22;77.97;;;26.35;;
69569;SDS011;56781;42.292;23.146;2022-12-07T00:18:52;95.13;;;29.88;;
69569;SDS011;56781;42.292;23.146;2022-12-07T00:21:20;86.15;;;28.95;;
69569;SDS011;56781;42.292;23.146;2022-12-07T00:23:50;82.97;;;26.83;;
69569;SDS011;56781;42.292;23.146;2022-12-07T00:26:19;86.07;;;28.67;;
69569;SDS011;56781;42.292;23.146;2022-12-07T00:28:47;86.65;;;30.00;;
69569;SDS011;56781;42.292;23.146;2022-12-07T00:31:16;119.85;;;38.88;;
69569;SDS011;56781;42.292;23.146;2022-12-07T00:33:44;110.07;;;31.08;;
69569;SDS011;56781;42.292;23.146;2022-12-07T00:36:14;100.47;;;30.17;;
69569;SDS011;56781;42.292;23.146;2022-12-07T00:38:51;148.25;;;41.17;;
69569;SDS011;56781;42.292;23.146;2022-12-07T00:41:19;128.80;;;37.65;;
69569;SDS011;56781;42.292;23.146;2022-12-07T00:43:48;174.90;;;42.85;;
69569;SDS011;56781;42.292;23.146;2022-12-07T00:46:16;167.63;;;40.83;;
69569;SDS011;56781;42.292;23.146;2022-12-07T00:48:45;104.37;;;28.43;;
69569;SDS011;56781;42.292;23.146;2022-12-07T00:51:13;101.97;;;28.05;;
69569;SDS011;56781;42.292;23.146;2022-12-07T00:53:41;57.15;;;19.10;;
69569;SDS011;56781;42.292;23.146;2022-12-07T00:56:11;62.42;;;20.42;;
69569;SDS011;56781;42.292;23.146;2022-12-07T00:58:39;59.30;;;19.42;;
69569;SDS011;56781;42.292;23.146;2022-12-07T01:01:07;56.97;;;20.50;;
69569;SDS011;56781;42.292;23.146;2022-12-07T01:03:35;68.30;;;22.67;;
69569;SDS011;56781;42.292;23.146;2022-12-07T01:06:03;66.32;;;25.48;;
69569;SDS011;56781;42.292;23.146;2022-12-07T01:08:30;65.78;;;24.52;;
69569;SDS011;56781;42.292;23.146;2022-12-07T01:11:02;55.50;;;20.02;;
69569;SDS011;56781;42.292;23.146;2022-12-07T01:13:32;61.60;;;23.03;;
69569;SDS011;56781;42.292;23.146;2022-12-07T01:16:01;43.95;;;18.27;;
69569;SDS011;56781;42.292;23.146;2022-12-07T01:18:30;50.63;;;21.15;;
69569;SDS011;56781;42.292;23.146;2022-12-07T01:21:03;52.97;;;20.20;;
69569;SDS011;56781;42.292;23.146;2022-12-07T01:23:33;55.00;;;20.77;;
69569;SDS011;56781;42.292;23.146;2022-12-07T01:26:03;61.17;;;21.90;;
69569;SDS011;56781;42.292;23.146;2022-12-07T01:28:32;47.75;;;19.33;;
69569;SDS011;56781;42.292;23.146;2022-12-07T01:31:00;121.00;;;32.03;;
69569;SDS011;56781;42.292;23.146;2022-12-07T01:33:33;115.57;;;31.50;;
69569;SDS011;56781;42.292;23.146;2022-12-07T01:36:03;65.43;;;22.20;;
69569;SDS011;56781;42.292;23.146;2022-12-07T01:38:44;65.90;;;22.70;;
69569;SDS011;56781;42.292;23.146;2022-12-07T01:41:13;62.83;;;23.00;;
69569;SDS011;56781;42.292;23.146;2022-12-07T01:44:06;59.85;;;21.38;;
69569;SDS011;56781;42.292;23.146;2022-12-07T01:46:33;119.75;;;32.42;;
69569;SDS011;56781;42.292;23.146;2022-12-07T01:49:00;84.45;;;27.33;;
69569;SDS011;56781;42.292;23.146;2022-12-07T01:51:29;83.67;;;26.17;;
69569;SDS011;56781;42.292;23.146;2022-12-07T01:53:56;100.07;;;28.00;;
69569;SDS011;56781;42.292;23.146;2022-12-07T01:56:24;96.45;;;29.73;;
69569;SDS011;56781;42.292;23.146;2022-12-07T01:58:55;57.83;;;21.42;;
69569;SDS011;56781;42.292;23.146;2022-12-07T02:01:25;73.05;;;25.77;;
69569;SDS011;56781;42.292;23.146;2022-12-07T02:03:52;73.87;;;25.23;;
69569;SDS011;56781;42.292;23.146;2022-12-07T02:06:20;72.78;;;25.27;;
69569;SDS011;56781;42.292;23.146;2022-12-07T02:08:51;67.57;;;27.42;;
69569;SDS011;56781;42.292;23.146;2022-12-07T02:11:18;72.43;;;28.17;;
69569;SDS011;56781;42.292;23.146;2022-12-07T02:13:46;68.47;;;26.00;;
69569;SDS011;56781;42.292;23.146;2022-12-07T02:16:25;69.07;;;25.50;;
69569;SDS011;56781;42.292;23.146;2022-12-07T02:22:01;62.20;;;25.30;;
69569;SDS011;56781;42.292;23.146;2022-12-07T02:24:55;52.63;;;20.75;;
69569;SDS011;56781;42.292;23.146;2022-12-07T02:27:40;49.47;;;21.33;;
69569;SDS011;56781;42.292;23.146;2022-12-07T02:30:17;49.53;;;18.17;;
69569;SDS011;56781;42.292;23.146;2022-12-07T02:35:33;50.13;;;19.25;;
69569;SDS011;56781;42.292;23.146;2022-12-07T02:38:16;52.35;;;17.00;;
69569;SDS011;56781;42.292;23.146;2022-12-07T02:40:55;50.20;;;17.70;;
69569;SDS011;56781;42.292;23.146;2022-12-07T02:43:30;46.87;;;17.13;;
69569;SDS011;56781;42.292;23.146;2022-12-07T02:46:10;39.30;;;14.60;;
69569;SDS011;56781;42.292;23.146;2022-12-07T02:48:42;33.33;;;13.77;;
69569;SDS011;56781;42.292;23.146;2022-12-07T02:51:11;36.55;;;14.13;;
69569;SDS011;56781;42.292;23.146;2022-12-07T02:53:42;28.80;;;13.15;;
69569;SDS011;56781;42.292;23.146;2022-12-07T03:02:01;42.75;;;17.50;;
69569;SDS011;56781;42.292;23.146;2022-12-07T03:04:52;34.03;;;13.85;;
69569;SDS011;56781;42.292;23.146;2022-12-07T03:12:27;29.65;;;12.90;;
69569;SDS011;56781;42.292;23.146;2022-12-07T03:15:02;28.45;;;11.48;;
69569;SDS011;56781;42.292;23.146;2022-12-07T03:17:37;27.75;;;12.27;;
69569;SDS011;56781;42.292;23.146;2022-12-07T03:20:07;33.85;;;13.38;;
69569;SDS011;56781;42.292;23.146;2022-12-07T03:22:38;33.00;;;13.10;;
69569;SDS011;56781;42.292;23.146;2022-12-07T03:25:09;32.85;;;14.43;;
69569;SDS011;56781;42.292;23.146;2022-12-07T03:27:41;29.42;;;13.77;;
69569;SDS011;56781;42.292;23.146;2022-12-07T03:30:20;28.90;;;12.98;;
69569;SDS011;56781;42.292;23.146;2022-12-07T03:32:53;28.35;;;12.85;;
69569;SDS011;56781;42.292;23.146;2022-12-07T03:37:56;28.80;;;13.43;;
69569;SDS011;56781;42.292;23.146;2022-12-07T03:40:31;31.38;;;13.25;;
69569;SDS011;56781;42.292;23.146;2022-12-07T03:43:20;33.35;;;13.60;;
69569;SDS011;56781;42.292;23.146;2022-12-07T03:45:58;35.53;;;14.23;;
69569;SDS011;56781;42.292;23.146;2022-12-07T03:48:52;28.93;;;13.10;;
69569;SDS011;56781;42.292;23.146;2022-12-07T03:55:14;29.17;;;11.98;;
69569;SDS011;56781;42.292;23.146;2022-12-07T03:57:22;38.85;;;15.55;;
69569;SDS011;56781;42.292;23.146;2022-12-07T03:59:51;42.17;;;14.48;;
69569;SDS011;56781;42.292;23.146;2022-12-07T04:02:21;38.90;;;16.20;;
69569;SDS011;56781;42.292;23.146;2022-12-07T04:04:50;41.33;;;17.25;;
69569;SDS011;56781;42.292;23.146;2022-12-07T04:07:17;39.13;;;17.35;;
69569;SDS011;56781;42.292;23.146;2022-12-07T04:09:44;33.33;;;13.60;;
69569;SDS011;56781;42.292;23.146;2022-12-07T04:12:11;36.08;;;18.25;;
69569;SDS011;56781;42.292;23.146;2022-12-07T04:14:38;39.30;;;17.97;;
69569;SDS011;56781;42.292;23.146;2022-12-07T04:17:06;35.33;;;18.92;;
69569;SDS011;56781;42.292;23.146;2022-12-07T04:19:33;64.20;;;28.50;;
69569;SDS011;56781;42.292;23.146;2022-12-07T04:22:02;58.47;;;32.20;;
69569;SDS011;56781;42.292;23.146;2022-12-07T04:24:30;71.55;;;29.50;;
69569;SDS011;56781;42.292;23.146;2022-12-07T04:26:57;139.10;;;42.07;;
69569;SDS011;56781;42.292;23.146;2022-12-07T04:29:24;67.90;;;23.77;;
69569;SDS011;56781;42.292;23.146;2022-12-07T04:31:52;48.97;;;20.83;;
69569;SDS011;56781;42.292;23.146;2022-12-07T04:34:19;54.95;;;24.42;;
69569;SDS011;56781;42.292;23.146;2022-12-07T04:36:47;38.95;;;16.17;;
69569;SDS011;56781;42.292;23.146;2022-12-07T04:39:28;32.67;;;15.70;;
69569;SDS011;56781;42.292;23.146;2022-12-07T04:41:57;35.58;;;14.90;;
69569;SDS011;56781;42.292;23.146;2022-12-07T04:44:25;32.97;;;13.68;;
69569;SDS011;56781;42.292;23.146;2022-12-07T04:46:53;36.38;;;16.38;;
69569;SDS011;56781;42.292;23.146;2022-12-07T04:49:21;51.58;;;18.38;;
69569;SDS011;56781;42.292;23.146;2022-12-07T04:51:48;46.63;;;19.17;;
69569;SDS011;56781;42.292;23.146;2022-12-07T04:54:16;30.20;;;11.57;;
69569;SDS011;56781;42.292;23.146;2022-12-07T04:56:44;32.53;;;13.43;;
69569;SDS011;56781;42.292;23.146;2022-12-07T04:59:11;42.55;;;19.83;;
69569;SDS011;56781;42.292;23.146;2022-12-07T05:01:39;101.35;;;38.65;;
69569;SDS011;56781;42.292;23.146;2022-12-07T05:04:06;57.77;;;24.27;;
69569;SDS011;56781;42.292;23.146;2022-12-07T05:06:34;40.33;;;16.85;;
69569;SDS011;56781;42.292;23.146;2022-12-07T05:09:02;37.20;;;15.27;;
69569;SDS011;56781;42.292;23.146;2022-12-07T05:11:29;57.33;;;21.88;;
69569;SDS011;56781;42.292;23.146;2022-12-07T05:14:06;37.83;;;14.65;;
69569;SDS011;56781;42.292;23.146;2022-12-07T05:16:45;35.40;;;15.23;;
69569;SDS011;56781;42.292;23.146;2022-12-07T05:19:15;34.58;;;13.20;;
69569;SDS011;56781;42.292;23.146;2022-12-07T05:21:43;34.78;;;14.38;;
69569;SDS011;56781;42.292;23.146;2022-12-07T05:24:11;25.02;;;11.02;;
69569;SDS011;56781;42.292;23.146;2022-12-07T05:26:40;30.05;;;13.32;;
69569;SDS011;56781;42.292;23.146;2022-12-07T05:29:07;47.23;;;17.20;;
69569;SDS011;56781;42.292;23.146;2022-12-07T05:31:41;27.55;;;11.77;;
69569;SDS011;56781;42.292;23.146;2022-12-07T05:34:09;29.88;;;13.20;;
69569;SDS011;56781;42.292;23.146;2022-12-07T05:36:36;31.42;;;13.23;;
69569;SDS011;56781;42.292;23.146;2022-12-07T05:39:03;28.55;;;12.43;;
69569;SDS011;56781;42.292;23.146;2022-12-07T05:41:30;32.57;;;14.17;;
69569;SDS011;56781;42.292;23.146;2022-12-07T05:44:20;34.55;;;16.52;;
69569;SDS011;56781;42.292;23.146;2022-12-07T05:46:47;39.60;;;18.55;;
69569;SDS011;56781;42.292;23.146;2022-12-07T05:49:14;36.22;;;15.30;;
69569;SDS011;56781;42.292;23.146;2022-12-07T05:51:41;50.28;;;17.55;;
69569;SDS011;56781;42.292;23.146;2022-12-07T05:54:08;41.93;;;15.63;;
69569;SDS011;56781;42.292;23.146;2022-12-07T05:56:35;35.38;;;14.07;;
69569;SDS011;56781;42.292;23.146;2022-12-07T05:59:06;32.40;;;11.73;;
69569;SDS011;56781;42.292;23.146;2022-12-07T06:01:49;31.08;;;11.32;;
69569;SDS011;56781;42.292;23.146;2022-12-07T06:04:18;95.38;;;25.67;;
69569;SDS011;56781;42.292;23.146;2022-12-07T06:06:45;115.87;;;29.80;;
69569;SDS011;56781;42.292;23.146;2022-12-07T06:09:12;99.05;;;26.67;;
69569;SDS011;56781;42.292;23.146;2022-12-07T06:11:40;58.58;;;18.50;;
69569;SDS011;56781;42.292;23.146;2022-12-07T06:14:26;41.28;;;14.05;;
69569;SDS011;56781;42.292;23.146;2022-12-07T06:16:53;54.38;;;15.23;;
69569;SDS011;56781;42.292;23.146;2022-12-07T06:19:20;43.33;;;13.40;;
69569;SDS011;56781;42.292;23.146;2022-12-07T06:21:47;41.30;;;14.30;;
69569;SDS011;56781;42.292;23.146;2022-12-07T06:24:15;28.92;;;10.82;;
69569;SDS011;56781;42.292;23.146;2022-12-07T06:26:43;29.33;;;10.18;;
69569;SDS011;56781;42.292;23.146;2022-12-07T06:29:10;26.88;;;11.60;;
69569;SDS011;56781;42.292;23.146;2022-12-07T06:31:38;25.63;;;9.27;;
69569;SDS011;56781;42.292;23.146;2022-12-07T06:34:09;25.63;;;9.38;;
69569;SDS011;56781;42.292;23.146;2022-12-07T06:36:38;18.83;;;8.60;;
69569;SDS011;56781;42.292;23.146;2022-12-07T06:39:05;18.00;;;8.20;;
69569;SDS011;56781;42.292;23.146;2022-12-07T06:41:36;21.48;;;8.77;;
69569;SDS011;56781;42.292;23.146;2022-12-07T06:44:06;25.07;;;9.07;;
69569;SDS011;56781;42.292;23.146;2022-12-07T06:46:34;22.75;;;8.70;;
69569;SDS011;56781;42.292;23.146;2022-12-07T06:49:04;21.98;;;8.82;;
69569;SDS011;56781;42.292;23.146;2022-12-07T06:51:32;36.10;;;14.85;;
69569;SDS011;56781;42.292;23.146;2022-12-07T06:54:04;103.38;;;34.63;;
69569;SDS011;56781;42.292;23.146;2022-12-07T06:56:32;26.80;;;12.17;;
69569;SDS011;56781;42.292;23.146;2022-12-07T06:59:00;20.98;;;11.57;;
69569;SDS011;56781;42.292;23.146;2022-12-07T07:01:27;54.70;;;19.75;;
69569;SDS011;56781;42.292;23.146;2022-12-07T07:03:54;35.00;;;16.52;;
69569;SDS011;56781;42.292;23.146;2022-12-07T07:06:21;31.48;;;14.27;;
69569;SDS011;56781;42.292;23.146;2022-12-07T07:08:49;20.53;;;9.20;;
69569;SDS011;56781;42.292;23.146;2022-12-07T07:11:16;16.25;;;6.90;;
69569;SDS011;56781;42.292;23.146;2022-12-07T07:13:44;20.33;;;8.18;;
69569;SDS011;56781;42.292;23.146;2022-12-07T07:16:11;31.80;;;11.45;;
69569;SDS011;56781;42.292;23.146;2022-12-07T07:18:39;18.05;;;7.88;;
69569;SDS011;56781;42.292;23.146;2022-12-07T07:21:06;26.57;;;8.87;;
69569;SDS011;56781;42.292;23.146;2022-12-07T07:23:33;23.25;;;9.18;;
69569;SDS011;56781;42.292;23.146;2022-12-07T07:26:00;21.83;;;9.65;;
69569;SDS011;56781;42.292;23.146;2022-12-07T07:28:27;28.60;;;10.90;;
69569;SDS011;56781;42.292;23.146;2022-12-07T07:30:54;25.98;;;11.02;;
69569;SDS011;56781;42.292;23.146;2022-12-07T07:33:21;29.00;;;11.70;;
69569;SDS011;56781;42.292;23.146;2022-12-07T07:35:48;42.17;;;17.52;;
69569;SDS011;56781;42.292;23.146;2022-12-07T07:38:15;26.42;;;12.30;;
69569;SDS011;56781;42.292;23.146;2022-12-07T07:40:42;16.35;;;7.28;;
69569;SDS011;56781;42.292;23.146;2022-12-07T07:43:09;26.67;;;10.02;;
69569;SDS011;56781;42.292;23.146;2022-12-07T07:45:36;27.27;;;9.43;;
69569;SDS011;56781;42.292;23.146;2022-12-07T07:48:03;26.70;;;10.18;;
69569;SDS011;56781;42.292;23.146;2022-12-07T07:50:30;15.60;;;7.65;;
69569;SDS011;56781;42.292;23.146;2022-12-07T07:52:57;21.15;;;8.77;;
69569;SDS011;56781;42.292;23.146;2022-12-07T07:55:24;20.70;;;7.72;;
69569;SDS011;56781;42.292;23.146;2022-12-07T07:57:51;20.97;;;7.77;;
69569;SDS011;56781;42.292;23.146;2022-12-07T08:00:20;23.27;;;9.98;;
69569;SDS011;56781;42.292;23.146;2022-12-07T08:02:48;20.05;;;10.00;;
69569;SDS011;56781;42.292;23.146;2022-12-07T08:05:15;18.50;;;7.95;;
69569;SDS011;56781;42.292;23.146;2022-12-07T08:07:43;17.95;;;7.97;;
69569;SDS011;56781;42.292;23.146;2022-12-07T08:10:11;21.53;;;9.13;;
69569;SDS011;56781;42.292;23.146;2022-12-07T08:12:40;15.63;;;7.43;;
69569;SDS011;56781;42.292;23.146;2022-12-07T08:15:27;15.90;;;7.57;;
69569;SDS011;56781;42.292;23.146;2022-12-07T08:17:55;20.02;;;8.07;;
69569;SDS011;56781;42.292;23.146;2022-12-07T08:20:22;18.50;;;7.55;;
69569;SDS011;56781;42.292;23.146;2022-12-07T08:22:49;15.63;;;7.53;;
69569;SDS011;56781;42.292;23.146;2022-12-07T08:25:16;22.95;;;9.43;;
69569;SDS011;56781;42.292;23.146;2022-12-07T08:27:44;17.27;;;7.55;;
69569;SDS011;56781;42.292;23.146;2022-12-07T08:30:11;24.38;;;10.85;;
69569;SDS011;56781;42.292;23.146;2022-12-07T08:32:38;17.73;;;8.23;;
69569;SDS011;56781;42.292;23.146;2022-12-07T08:35:05;17.73;;;7.70;;
69569;SDS011;56781;42.292;23.146;2022-12-07T08:37:33;13.85;;;7.40;;
69569;SDS011;56781;42.292;23.146;2022-12-07T08:40:00;12.07;;;7.03;;
69569;SDS011;56781;42.292;23.146;2022-12-07T08:42:27;15.45;;;7.95;;
69569;SDS011;56781;42.292;23.146;2022-12-07T08:44:56;15.18;;;6.97;;
69569;SDS011;56781;42.292;23.146;2022-12-07T08:47:24;17.23;;;7.37;;
69569;SDS011;56781;42.292;23.146;2022-12-07T08:49:51;17.75;;;7.65;;
69569;SDS011;56781;42.292;23.146;2022-12-07T08:52:20;16.52;;;7.32;;
69569;SDS011;56781;42.292;23.146;2022-12-07T08:54:48;20.90;;;7.35;;
69569;SDS011;56781;42.292;23.146;2022-12-07T08:57:15;20.85;;;9.13;;
69569;SDS011;56781;42.292;23.146;2022-12-07T08:59:43;13.67;;;6.17;;
69569;SDS011;56781;42.292;23.146;2022-12-07T09:02:10;15.38;;;6.45;;
69569;SDS011;56781;42.292;23.146;2022-12-07T09:04:37;13.88;;;6.28;;
69569;SDS011;56781;42.292;23.146;2022-12-07T09:07:04;12.55;;;5.70;;
69569;SDS011;56781;42.292;23.146;2022-12-07T09:09:32;14.30;;;5.90;;
69569;SDS011;56781;42.292;23.146;2022-12-07T09:11:59;23.00;;;8.03;;
69569;SDS011;56781;42.292;23.146;2022-12-07T09:14:26;13.80;;;7.28;;
69569;SDS011;56781;42.292;23.146;2022-12-07T09:16:53;27.50;;;9.20;;
69569;SDS011;56781;42.292;23.146;2022-12-07T09:19:20;16.73;;;6.32;;
69569;SDS011;56781;42.292;23.146;2022-12-07T09:21:48;17.80;;;6.75;;
69569;SDS011;56781;42.292;23.146;2022-12-07T09:24:18;37.77;;;13.13;;
69569;SDS011;56781;42.292;23.146;2022-12-07T09:26:45;27.00;;;9.20;;
69569;SDS011;56781;42.292;23.146;2022-12-07T09:29:15;20.17;;;7.82;;
69569;SDS011;56781;42.292;23.146;2022-12-07T09:31:42;19.20;;;6.47;;
69569;SDS011;56781;42.292;23.146;2022-12-07T09:34:10;15.73;;;6.40;;
69569;SDS011;56781;42.292;23.146;2022-12-07T09:36:37;12.83;;;5.77;;
69569;SDS011;56781;42.292;23.146;2022-12-07T09:39:04;13.60;;;5.80;;
69569;SDS011;56781;42.292;23.146;2022-12-07T09:41:32;11.40;;;5.45;;
69569;SDS011;56781;42.292;23.146;2022-12-07T09:44:06;11.85;;;5.70;;
69569;SDS011;56781;42.292;23.146;2022-12-07T09:46:46;18.70;;;7.95;;
69569;SDS011;56781;42.292;23.146;2022-12-07T09:49:16;13.30;;;6.03;;
69569;SDS011;56781;42.292;23.146;2022-12-07T09:51:46;12.38;;;6.57;;
69569;SDS011;56781;42.292;23.146;2022-12-07T09:54:15;14.95;;;7.15;;
69569;SDS011;56781;42.292;23.146;2022-12-07T09:56:43;14.80;;;6.57;;
69569;SDS011;56781;42.292;23.146;2022-12-07T09:59:16;14.32;;;6.82;;
69569;SDS011;56781;42.292;23.146;2022-12-07T10:01:47;14.70;;;5.80;;
69569;SDS011;56781;42.292;23.146;2022-12-07T10:04:22;15.80;;;6.88;;
69569;SDS011;56781;42.292;23.146;2022-12-07T10:06:54;18.60;;;6.45;;
69569;SDS011;56781;42.292;23.146;2022-12-07T10:09:24;12.98;;;6.03;;
69569;SDS011;56781;42.292;23.146;2022-12-07T10:11:59;11.35;;;4.72;;
69569;SDS011;56781;42.292;23.146;2022-12-07T10:14:38;12.90;;;5.50;;
69569;SDS011;56781;42.292;23.146;2022-12-07T10:17:36;12.50;;;5.53;;
69569;SDS011;56781;42.292;23.146;2022-12-07T10:23:03;12.75;;;6.40;;
69569;SDS011;56781;42.292;23.146;2022-12-07T10:25:35;14.25;;;6.63;;
69569;SDS011;56781;42.292;23.146;2022-12-07T10:28:13;13.17;;;5.50;;
69569;SDS011;56781;42.292;23.146;2022-12-07T10:30:59;12.45;;;6.65;;
69569;SDS011;56781;42.292;23.146;2022-12-07T10:33:33;11.95;;;5.35;;
69569;SDS011;56781;42.292;23.146;2022-12-07T10:38:51;11.05;;;5.03;;
69569;SDS011;56781;42.292;23.146;2022-12-07T10:41:26;13.70;;;5.40;;
69569;SDS011;56781;42.292;23.146;2022-12-07T10:43:54;10.57;;;4.03;;
69569;SDS011;56781;42.292;23.146;2022-12-07T10:52:00;13.00;;;4.72;;
69569;SDS011;56781;42.292;23.146;2022-12-07T11:00:21;11.57;;;4.90;;
69569;SDS011;56781;42.292;23.146;2022-12-07T11:10:57;8.65;;;3.17;;
69569;SDS011;56781;42.292;23.146;2022-12-07T11:19:24;8.82;;;3.20;;
69569;SDS011;56781;42.292;23.146;2022-12-07T11:22:09;7.80;;;3.20;;
69569;SDS011;56781;42.292;23.146;2022-12-07T11:33:04;7.30;;;3.17;;
69569;SDS011;56781;42.292;23.146;2022-12-07T11:38:20;7.10;;;3.10;;
69569;SDS011;56781;42.292;23.146;2022-12-07T11:40:56;11.25;;;3.05;;
69569;SDS011;56781;42.292;23.146;2022-12-07T11:44:01;7.80;;;2.97;;
69569;SDS011;56781;42.292;23.146;2022-12-07T11:46:37;7.63;;;3.35;;
69569;SDS011;56781;42.292;23.146;2022-12-07T11:52:50;5.50;;;3.03;;
69569;SDS011;56781;42.292;23.146;2022-12-07T11:55:29;5.80;;;3.00;;
69569;SDS011;56781;42.292;23.146;2022-12-07T11:58:14;8.23;;;3.50;;
69569;SDS011;56781;42.292;23.146;2022-12-07T12:00:55;7.82;;;2.95;;
69569;SDS011;56781;42.292;23.146;2022-12-07T12:03:36;7.23;;;3.10;;
69569;SDS011;56781;42.292;23.146;2022-12-07T12:06:07;11.77;;;4.97;;
69569;SDS011;56781;42.292;23.146;2022-12-07T12:08:36;11.10;;;5.10;;
69569;SDS011;56781;42.292;23.146;2022-12-07T12:14:18;12.27;;;6.05;;
69569;SDS011;56781;42.292;23.146;2022-12-07T12:20:19;16.15;;;6.63;;
69569;SDS011;56781;42.292;23.146;2022-12-07T12:22:52;17.27;;;6.72;;
69569;SDS011;56781;42.292;23.146;2022-12-07T12:25:43;6.97;;;4.20;;
69569;SDS011;56781;42.292;23.146;2022-12-07T12:28:21;10.10;;;4.70;;
69569;SDS011;56781;42.292;23.146;2022-12-07T12:33:38;10.05;;;3.72;;
69569;SDS011;56781;42.292;23.146;2022-12-07T12:36:18;9.88;;;4.30;;
69569;SDS011;56781;42.292;23.146;2022-12-07T12:51:57;11.48;;;5.28;;
69569;SDS011;56781;42.292;23.146;2022-12-07T12:54:32;10.90;;;6.15;;
69569;SDS011;56781;42.292;23.146;2022-12-07T13:02:21;5.78;;;3.35;;
69569;SDS011;56781;42.292;23.146;2022-12-07T13:04:56;8.57;;;3.72;;
69569;SDS011;56781;42.292;23.146;2022-12-07T13:13:01;9.90;;;2.95;;
69569;SDS011;56781;42.292;23.146;2022-12-07T13:15:52;9.00;;;3.60;;
69569;SDS011;56781;42.292;23.146;2022-12-07T13:20:55;6.70;;;3.85;;
69569;SDS011;56781;42.292;23.146;2022-12-07T13:31:43;11.05;;;4.63;;
69569;SDS011;56781;42.292;23.146;2022-12-07T13:37:10;11.83;;;5.70;;
69569;SDS011;56781;42.292;23.146;2022-12-07T13:39:49;16.55;;;6.13;;
69569;SDS011;56781;42.292;23.146;2022-12-07T13:42:24;10.68;;;5.20;;
69569;SDS011;56781;42.292;23.146;2022-12-07T13:44:53;11.10;;;4.82;;
69569;SDS011;56781;42.292;23.146;2022-12-07T13:47:35;9.73;;;4.35;;
69569;SDS011;56781;42.292;23.146;2022-12-07T13:50:24;10.27;;;5.40;;
69569;SDS011;56781;42.292;23.146;2022-12-07T13:52:57;12.68;;;8.20;;
69569;SDS011;56781;42.292;23.146;2022-12-07T13:55:26;14.50;;;6.30;;
69569;SDS011;56781;42.292;23.146;2022-12-07T13:57:55;11.38;;;4.25;;
69569;SDS011;56781;42.292;23.146;2022-12-07T14:00:23;11.23;;;5.57;;
69569;SDS011;56781;42.292;23.146;2022-12-07T14:05:43;11.82;;;4.93;;
69569;SDS011;56781;42.292;23.146;2022-12-07T14:10:42;12.50;;;5.22;;
69569;SDS011;56781;42.292;23.146;2022-12-07T14:13:39;11.18;;;5.60;;
69569;SDS011;56781;42.292;23.146;2022-12-07T14:16:27;19.77;;;8.57;;
69569;SDS011;56781;42.292;23.146;2022-12-07T14:18:59;14.55;;;7.40;;
69569;SDS011;56781;42.292;23.146;2022-12-07T14:21:28;15.82;;;8.15;;
69569;SDS011;56781;42.292;23.146;2022-12-07T14:24:10;14.20;;;6.45;;
69569;SDS011;56781;42.292;23.146;2022-12-07T14:26:48;14.95;;;6.22;;
69569;SDS011;56781;42.292;23.146;2022-12-07T14:31:56;13.45;;;6.97;;
69569;SDS011;56781;42.292;23.146;2022-12-07T14:34:25;17.10;;;9.60;;
69569;SDS011;56781;42.292;23.146;2022-12-07T14:36:52;23.02;;;11.20;;
69569;SDS011;56781;42.292;23.146;2022-12-07T14:39:19;20.50;;;9.20;;
69569;SDS011;56781;42.292;23.146;2022-12-07T14:41:46;27.20;;;11.73;;
69569;SDS011;56781;42.292;23.146;2022-12-07T14:44:17;49.38;;;22.10;;
69569;SDS011;56781;42.292;23.146;2022-12-07T14:46:51;33.17;;;15.35;;
69569;SDS011;56781;42.292;23.146;2022-12-07T14:49:38;25.27;;;15.32;;
69569;SDS011;56781;42.292;23.146;2022-12-07T14:52:06;23.40;;;14.75;;
69569;SDS011;56781;42.292;23.146;2022-12-07T14:55:01;24.10;;;11.77;;
69569;SDS011;56781;42.292;23.146;2022-12-07T14:57:28;13.90;;;6.68;;
69569;SDS011;56781;42.292;23.146;2022-12-07T14:59:55;16.83;;;8.30;;
69569;SDS011;56781;42.292;23.146;2022-12-07T15:02:23;17.63;;;8.93;;
69569;SDS011;56781;42.292;23.146;2022-12-07T15:04:50;16.30;;;8.65;;
69569;SDS011;56781;42.292;23.146;2022-12-07T15:07:20;19.00;;;10.33;;
69569;SDS011;56781;42.292;23.146;2022-12-07T15:09:48;18.02;;;7.40;;
69569;SDS011;56781;42.292;23.146;2022-12-07T15:12:15;34.03;;;18.13;;
69569;SDS011;56781;42.292;23.146;2022-12-07T15:14:42;18.67;;;7.35;;
69569;SDS011;56781;42.292;23.146;2022-12-07T15:17:10;19.15;;;10.32;;
69569;SDS011;56781;42.292;23.146;2022-12-07T15:19:55;19.13;;;9.87;;
69569;SDS011;56781;42.292;23.146;2022-12-07T15:22:22;39.13;;;19.40;;
69569;SDS011;56781;42.292;23.146;2022-12-07T15:24:49;21.98;;;10.43;;
69569;SDS011;56781;42.292;23.146;2022-12-07T15:27:16;17.80;;;8.70;;
69569;SDS011;56781;42.292;23.146;2022-12-07T15:29:43;24.20;;;11.40;;
69569;SDS011;56781;42.292;23.146;2022-12-07T15:32:10;16.50;;;6.60;;
69569;SDS011;56781;42.292;23.146;2022-12-07T15:34:37;16.50;;;7.50;;
69569;SDS011;56781;42.292;23.146;2022-12-07T15:37:06;25.88;;;8.93;;
69569;SDS011;56781;42.292;23.146;2022-12-07T15:39:35;18.45;;;9.02;;
69569;SDS011;56781;42.292;23.146;2022-12-07T15:42:03;21.33;;;8.05;;
69569;SDS011;56781;42.292;23.146;2022-12-07T15:44:30;36.73;;;17.77;;
69569;SDS011;56781;42.292;23.146;2022-12-07T15:47:16;30.13;;;15.55;;
69569;SDS011;56781;42.292;23.146;2022-12-07T15:49:43;30.92;;;12.48;;
69569;SDS011;56781;42.292;23.146;2022-12-07T15:52:10;22.65;;;11.55;;
69569;SDS011;56781;42.292;23.146;2022-12-07T15:54:37;22.48;;;11.23;;
69569;SDS011;56781;42.292;23.146;2022-12-07T15:57:04;18.27;;;9.17;;
69569;SDS011;56781;42.292;23.146;2022-12-07T15:59:31;54.58;;;17.75;;
69569;SDS011;56781;42.292;23.146;2022-12-07T16:01:58;38.72;;;13.90;;
69569;SDS011;56781;42.292;23.146;2022-12-07T16:04:26;23.35;;;8.73;;
69569;SDS011;56781;42.292;23.146;2022-12-07T16:06:55;18.67;;;7.55;;
69569;SDS011;56781;42.292;23.146;2022-12-07T16:09:23;20.63;;;7.20;;
69569;SDS011;56781;42.292;23.146;2022-12-07T16:11:50;38.72;;;12.30;;
69569;SDS011;56781;42.292;23.146;2022-12-07T16:14:17;38.53;;;12.70;;
69569;SDS011;56781;42.292;23.146;2022-12-07T16:16:44;22.13;;;8.48;;
69569;SDS011;56781;42.292;23.146;2022-12-07T16:19:12;16.60;;;7.10;;
69569;SDS011;56781;42.292;23.146;2022-12-07T16:21:39;16.83;;;7.00;;
69569;SDS011;56781;42.292;23.146;2022-12-07T16:24:07;18.10;;;6.88;;
69569;SDS011;56781;42.292;23.146;2022-12-07T16:26:34;23.33;;;9.27;;
69569;SDS011;56781;42.292;23.146;2022-12-07T16:29:01;41.90;;;18.25;;
69569;SDS011;56781;42.292;23.146;2022-12-07T16:31:28;27.38;;;12.27;;
69569;SDS011;56781;42.292;23.146;2022-12-07T16:33:57;29.13;;;13.07;;
69569;SDS011;56781;42.292;23.146;2022-12-07T16:36:24;21.63;;;9.73;;
69569;SDS011;56781;42.292;23.146;2022-12-07T16:39:13;72.47;;;22.55;;